createdAt,value
2018-12-08T00:00:48.026Z,6.1
2018-12-08T00:01:47.918Z,6.2
2018-12-08T00:02:47.797Z,6.1
2018-12-08T00:03:47.674Z,6.1
2018-12-08T00:04:47.547Z,6.1
2018-12-08T00:05:47.471Z,6.1
2018-12-08T00:06:47.406Z,6.1
2018-12-08T00:07:47.286Z,6.1
2018-12-08T00:08:47.164Z,6.1
2018-12-08T00:09:47.575Z,6
2018-12-08T00:10:47.488Z,6
2018-12-08T00:11:47.384Z,6
2018-12-08T00:12:47.287Z,6
2018-12-08T00:13:47.194Z,5.9
2018-12-08T00:14:47.113Z,5.8
2018-12-08T00:15:46.998Z,5.6
2018-12-08T00:16:46.933Z,5.5
2018-12-08T00:17:46.835Z,5.3
2018-12-08T00:18:46.723Z,5.2
2018-12-08T00:19:47.046Z,5.3
2018-12-08T00:20:46.932Z,5.2
2018-12-08T00:21:46.848Z,5.1
2018-12-08T00:22:46.720Z,5
2018-12-08T00:23:46.605Z,4.9
2018-12-08T00:24:46.491Z,5
2018-12-08T00:25:46.366Z,4.9
2018-12-08T00:26:46.258Z,4.9
2018-12-08T00:27:46.161Z,4.8
2018-12-08T00:28:46.063Z,4.8
2018-12-08T00:29:46.395Z,4.7
2018-12-08T00:30:46.681Z,4.6
2018-12-08T00:31:46.582Z,4.5
2018-12-08T00:32:46.511Z,4.5
2018-12-08T00:33:46.412Z,4.6
2018-12-08T00:34:46.300Z,4.5
2018-12-08T00:35:46.177Z,4.6
2018-12-08T00:36:46.081Z,4.5
2018-12-08T00:37:45.999Z,4.5
2018-12-08T00:38:45.884Z,4.6
2018-12-08T00:49:44.084Z,5.3
2018-12-08T00:50:43.969Z,5.3
2018-12-08T00:51:43.880Z,5.2
2018-12-08T00:52:43.883Z,5
2018-12-08T00:53:43.804Z,4.9
2018-12-08T00:54:43.707Z,5
2018-12-08T00:55:43.608Z,5
2018-12-08T00:56:43.512Z,4.9
2018-12-08T00:57:43.432Z,4.7
2018-12-08T00:58:43.318Z,4.6
2018-12-08T00:59:43.666Z,4.5
2018-12-08T01:00:43.566Z,4.6
2018-12-08T01:01:43.455Z,4.7
2018-12-08T01:02:43.342Z,4.6
2018-12-08T01:03:43.223Z,4.6
2018-12-08T01:04:43.095Z,4.5
2018-12-08T01:05:42.994Z,4.4
2018-12-08T01:06:42.883Z,4.5
2018-12-08T01:07:42.762Z,4.3
2018-12-08T01:08:42.674Z,4.1
2018-12-08T01:09:42.981Z,4.1
2018-12-08T01:10:42.872Z,4.1
2018-12-08T01:11:42.764Z,4.2
2018-12-08T01:12:42.662Z,4
2018-12-08T01:13:42.536Z,4
2018-12-08T01:14:42.444Z,4
2018-12-08T01:15:42.352Z,3.9
2018-12-08T01:16:42.228Z,3.8
2018-12-08T01:17:42.107Z,3.9
2018-12-08T01:18:42.000Z,3.8
2018-12-08T01:19:42.348Z,3.7
2018-12-08T01:20:42.232Z,3.8
2018-12-08T01:21:42.124Z,3.7
2018-12-08T01:22:42.004Z,3.7
2018-12-08T01:23:41.896Z,3.7
2018-12-08T01:24:41.798Z,3.7
2018-12-08T01:25:43.878Z,3.7
2018-12-08T01:26:43.784Z,3.6
2018-12-08T01:27:43.668Z,3.5
2018-12-08T01:28:43.546Z,3.6
2018-12-08T01:49:39.382Z,3.7
2018-12-08T01:50:39.252Z,3.7
2018-12-08T01:51:39.158Z,3.6
2018-12-08T01:52:39.032Z,3.6
2018-12-08T01:53:38.900Z,3.6
2018-12-08T01:54:38.776Z,3.7
2018-12-08T01:55:38.671Z,3.7
2018-12-08T01:56:38.542Z,3.8
2018-12-08T01:57:38.429Z,3.8
2018-12-08T01:58:38.319Z,3.7
2018-12-08T01:59:38.624Z,3.7
2018-12-08T02:00:38.488Z,3.7
2018-12-08T02:01:38.368Z,3.7
2018-12-08T02:02:38.261Z,3.7
2018-12-08T02:03:38.148Z,3.6
2018-12-08T02:04:38.031Z,3.6
2018-12-08T02:05:37.902Z,3.6
2018-12-08T02:06:37.788Z,3.6
2018-12-08T02:07:37.698Z,3.6
2018-12-08T02:08:37.594Z,3.5
2018-12-08T02:09:37.880Z,3.4
2018-12-08T02:19:35.870Z,3.6
2018-12-08T02:20:35.752Z,3.6
2018-12-08T02:21:35.625Z,3.6
2018-12-08T02:22:35.503Z,3.6
2018-12-08T02:23:35.518Z,3.5
2018-12-08T02:24:35.408Z,3.4
2018-12-08T02:25:35.376Z,3.5
2018-12-08T02:26:35.255Z,3.5
2018-12-08T02:27:35.155Z,3.5
2018-12-08T02:28:35.037Z,3.4
2018-12-08T02:29:35.377Z,3.3
2018-12-08T02:30:35.250Z,3.3
2018-12-08T02:31:35.126Z,3.3
2018-12-08T02:32:35.025Z,3.3
2018-12-08T02:33:34.933Z,3.2
2018-12-08T02:34:34.829Z,3.3
2018-12-08T02:35:34.740Z,3.3
2018-12-08T02:36:34.692Z,3.3
2018-12-08T02:37:34.833Z,3.3
2018-12-08T02:38:34.735Z,3.3
2018-12-08T02:39:35.251Z,3.2
2018-12-08T02:40:35.271Z,3.2
2018-12-08T02:41:35.163Z,3.2
2018-12-08T02:42:35.065Z,3.3
2018-12-08T02:43:35.052Z,3.3
2018-12-08T02:44:34.991Z,3.3
2018-12-08T02:45:34.879Z,3.3
2018-12-08T02:46:34.785Z,3.3
2018-12-08T02:47:34.679Z,3.3
2018-12-08T02:48:34.571Z,3.3
2018-12-08T02:49:34.930Z,3.3
2018-12-08T02:50:34.824Z,3.3
2018-12-08T02:51:34.732Z,3.3
2018-12-08T02:52:34.618Z,3.3
2018-12-08T02:53:34.517Z,3.3
2018-12-08T02:54:34.412Z,3.3
2018-12-08T02:55:34.310Z,3.3
2018-12-08T02:56:34.200Z,3.3
2018-12-08T02:57:34.107Z,3.3
2018-12-08T02:58:33.994Z,3.3
2018-12-08T02:59:34.470Z,3.3
2018-12-08T03:00:34.384Z,3.3
2018-12-08T03:01:34.278Z,3.3
2018-12-08T03:02:34.177Z,3.4
2018-12-08T03:03:34.062Z,3.3
2018-12-08T03:04:33.955Z,3.3
2018-12-08T03:05:33.851Z,3.4
2018-12-08T03:06:33.750Z,3.3
2018-12-08T03:07:33.642Z,3.3
2018-12-08T03:08:33.514Z,3.4
2018-12-08T03:09:33.837Z,3.3
2018-12-08T03:10:33.730Z,3.4
2018-12-08T03:11:33.655Z,3.4
2018-12-08T03:12:33.531Z,3.4
2018-12-08T03:13:33.433Z,3.5
2018-12-08T03:14:33.425Z,3.5
2018-12-08T03:15:33.322Z,3.5
2018-12-08T03:16:33.213Z,3.4
2018-12-08T03:17:33.108Z,3.5
2018-12-08T03:18:32.986Z,3.4
2018-12-08T03:19:33.299Z,3.4
2018-12-08T03:29:31.323Z,4
2018-12-08T03:30:31.201Z,4
2018-12-08T03:31:31.165Z,3.9
2018-12-08T03:32:31.085Z,3.9
2018-12-08T03:33:31.023Z,4
2018-12-08T03:34:30.904Z,3.9
2018-12-08T03:35:30.791Z,3.9
2018-12-08T03:36:30.678Z,3.9
2018-12-08T03:37:30.574Z,3.7
2018-12-08T03:38:30.458Z,3.8
2018-12-08T03:39:30.804Z,3.8
2018-12-08T03:40:30.692Z,3.7
2018-12-08T03:41:30.598Z,3.6
2018-12-08T03:42:30.493Z,3.6
2018-12-08T03:43:30.386Z,3.5
2018-12-08T03:44:30.390Z,3.5
2018-12-08T03:45:30.271Z,3.4
2018-12-08T03:46:30.164Z,3.3
2018-12-08T03:47:30.072Z,3.2
2018-12-08T03:48:29.981Z,3.1
2018-12-08T03:49:30.330Z,3.1
2018-12-08T03:50:30.248Z,3
2018-12-08T03:51:30.227Z,3.1
2018-12-08T03:52:30.137Z,3
2018-12-08T03:53:30.085Z,3
2018-12-08T03:54:29.973Z,3
2018-12-08T03:55:29.889Z,3.1
2018-12-08T03:56:29.916Z,3
2018-12-08T03:57:29.861Z,3
2018-12-08T03:58:29.746Z,3
2018-12-08T03:59:30.102Z,3
2018-12-08T04:00:30.012Z,3
2018-12-08T04:09:28.430Z,3.7
2018-12-08T04:10:28.321Z,3.7
2018-12-08T04:11:28.240Z,3.7
2018-12-08T04:12:28.149Z,3.7
2018-12-08T04:13:28.044Z,3.7
2018-12-08T04:14:27.939Z,3.6
2018-12-08T04:15:27.818Z,3.6
2018-12-08T04:16:27.703Z,3.6
2018-12-08T04:17:27.613Z,3.6
2018-12-08T04:18:27.531Z,3.6
2018-12-08T04:19:27.824Z,3.6
2018-12-08T04:20:27.703Z,3.6
2018-12-08T04:21:27.598Z,3.5
2018-12-08T04:22:27.525Z,3.5
2018-12-08T04:23:27.411Z,3.5
2018-12-08T04:24:27.306Z,3.5
2018-12-08T04:25:27.178Z,3.5
2018-12-08T04:26:27.073Z,3.5
2018-12-08T04:27:26.975Z,3.4
2018-12-08T04:28:26.884Z,3.4
2018-12-08T04:29:27.213Z,3.4
2018-12-08T04:30:27.104Z,3.4
2018-12-08T04:31:27.017Z,3.4
2018-12-08T04:32:26.926Z,3.4
2018-12-08T04:33:26.835Z,3.4
2018-12-08T04:34:26.725Z,3.4
2018-12-08T04:35:26.619Z,3.3
2018-12-08T04:36:26.523Z,3.3
2018-12-08T04:37:26.412Z,3.2
2018-12-08T04:38:26.329Z,3.3
2018-12-08T04:39:26.683Z,3.3
2018-12-08T04:40:26.564Z,3.3
2018-12-08T04:41:26.465Z,3.2
2018-12-08T04:42:26.339Z,3.3
2018-12-08T04:43:26.251Z,3.3
2018-12-08T04:44:26.147Z,3.3
2018-12-08T04:45:26.037Z,3.3
2018-12-08T04:46:25.933Z,3.3
2018-12-08T04:47:25.935Z,3.2
2018-12-08T04:48:25.855Z,3.2
2018-12-08T04:49:26.163Z,3.3
2018-12-08T04:50:26.050Z,3.2
2018-12-08T04:51:25.935Z,3.3
2018-12-08T04:59:24.421Z,3.8
2018-12-08T05:00:24.315Z,3.7
2018-12-08T05:01:24.199Z,3.7
2018-12-08T05:02:24.093Z,3.6
2018-12-08T05:03:23.998Z,3.6
2018-12-08T05:04:23.868Z,3.6
2018-12-08T05:05:23.779Z,3.6
2018-12-08T05:06:23.684Z,3.5
2018-12-08T05:07:23.547Z,3.5
2018-12-08T05:08:23.441Z,3.4
2018-12-08T05:09:23.729Z,3.4
2018-12-08T05:10:23.605Z,3.4
2018-12-08T05:11:23.491Z,3.4
2018-12-08T05:12:23.464Z,3.4
2018-12-08T05:13:23.347Z,3.4
2018-12-08T05:14:23.232Z,3.4
2018-12-08T05:15:23.105Z,3.4
2018-12-08T05:16:22.982Z,3.4
2018-12-08T05:17:22.867Z,3.4
2018-12-08T05:18:22.746Z,3.3
2018-12-08T05:19:23.066Z,3.3
2018-12-08T05:20:22.941Z,3.3
2018-12-08T05:21:22.824Z,3.3
2018-12-08T05:22:22.698Z,3.3
2018-12-08T05:23:22.583Z,3.3
2018-12-08T05:24:22.478Z,3.3
2018-12-08T05:25:22.380Z,3.3
2018-12-08T05:26:22.266Z,3.3
2018-12-08T05:27:22.176Z,3.3
2018-12-08T05:28:22.067Z,3.3
2018-12-08T05:29:22.372Z,3.3
2018-12-08T05:30:22.289Z,3.2
2018-12-08T05:31:22.235Z,3.3
2018-12-08T05:32:22.130Z,3.2
2018-12-08T05:33:22.017Z,3.2
2018-12-08T05:34:21.914Z,3.3
2018-12-08T05:35:21.813Z,3.3
2018-12-08T05:36:21.716Z,3.3
2018-12-08T05:37:21.602Z,3.3
2018-12-08T05:38:21.478Z,3.3
2018-12-08T05:39:21.793Z,3.3
2018-12-08T05:40:21.679Z,3.3
2018-12-08T05:41:21.592Z,3.3
2018-12-08T05:42:21.463Z,3.3
2018-12-08T05:43:21.334Z,3.2
2018-12-08T05:44:21.212Z,3.3
2018-12-08T05:45:21.100Z,3.2
2018-12-08T05:46:21.022Z,3.2
2018-12-08T05:47:20.899Z,3.2
2018-12-08T05:48:20.779Z,3.2
2018-12-08T05:49:21.094Z,3.3
2018-12-08T05:50:20.975Z,3.2
2018-12-08T05:59:19.115Z,3.9
2018-12-08T06:00:18.991Z,3.9
2018-12-08T06:01:18.921Z,3.9
2018-12-08T06:02:18.810Z,3.8
2018-12-08T06:03:18.707Z,3.8
2018-12-08T06:04:18.593Z,3.7
2018-12-08T06:05:18.470Z,3.7
2018-12-08T06:06:18.367Z,3.7
2018-12-08T06:07:18.249Z,3.6
2018-12-08T06:08:18.140Z,3.6
2018-12-08T06:09:18.549Z,3.6
2018-12-08T06:10:18.431Z,3.5
2018-12-08T06:11:18.344Z,3.5
2018-12-08T06:12:18.348Z,3.5
2018-12-08T06:13:18.241Z,3.5
2018-12-08T06:14:18.128Z,3.4
2018-12-08T06:15:18.073Z,3.4
2018-12-08T06:16:17.951Z,3.4
2018-12-08T06:17:17.858Z,3.4
2018-12-08T06:18:17.741Z,3.4
2018-12-08T06:19:18.047Z,3.4
2018-12-08T06:20:17.937Z,3.4
2018-12-08T06:21:17.830Z,3.4
2018-12-08T06:29:16.245Z,3.9
2018-12-08T06:30:16.241Z,3.9
2018-12-08T06:31:16.137Z,3.8
2018-12-08T06:32:16.041Z,3.8
2018-12-08T06:33:15.943Z,3.8
2018-12-08T06:34:15.820Z,3.7
2018-12-08T06:35:15.697Z,3.7
2018-12-08T06:36:15.585Z,3.6
2018-12-08T06:37:15.497Z,3.6
2018-12-08T06:38:15.387Z,3.6
2018-12-08T06:39:15.791Z,3.6
2018-12-08T06:40:15.671Z,3.6
2018-12-08T06:41:15.557Z,3.6
2018-12-08T06:42:15.430Z,3.5
2018-12-08T06:43:15.331Z,3.5
2018-12-08T06:44:15.209Z,3.4
2018-12-08T06:45:15.098Z,3.5
2018-12-08T06:46:14.986Z,3.5
2018-12-08T06:47:14.873Z,3.4
2018-12-08T06:48:14.794Z,3.4
2018-12-08T06:49:15.105Z,3.4
2018-12-08T06:50:15.008Z,3.3
2018-12-08T07:09:10.876Z,4.1
2018-12-08T07:10:10.754Z,4.1
2018-12-08T07:11:10.656Z,4.1
2018-12-08T07:12:10.558Z,4
2018-12-08T07:13:10.474Z,4
2018-12-08T07:14:10.352Z,4
2018-12-08T07:15:10.250Z,3.9
2018-12-08T07:16:10.130Z,3.9
2018-12-08T07:17:10.022Z,3.9
2018-12-08T07:18:09.897Z,3.9
2018-12-08T07:19:10.211Z,3.8
2018-12-08T07:20:10.111Z,3.8
2018-12-08T07:21:10.022Z,3.7
2018-12-08T07:22:09.896Z,3.8
2018-12-08T07:23:09.791Z,3.9
2018-12-08T07:29:08.792Z,4.1
2018-12-08T07:30:08.696Z,4.1
2018-12-08T07:31:08.584Z,4.1
2018-12-08T07:32:08.466Z,4
2018-12-08T07:33:08.359Z,4
2018-12-08T07:34:08.248Z,3.9
2018-12-08T07:35:08.126Z,3.9
2018-12-08T07:36:08.032Z,3.9
2018-12-08T07:37:07.921Z,3.9
2018-12-08T07:38:07.806Z,3.9
2018-12-08T07:39:08.124Z,3.9
2018-12-08T07:40:08.013Z,3.8
2018-12-08T07:41:07.928Z,3.8
2018-12-08T07:42:07.830Z,3.9
2018-12-08T07:49:06.522Z,4.5
2018-12-08T07:50:06.409Z,4.5
2018-12-08T07:51:06.324Z,4.5
2018-12-08T07:52:06.233Z,4.4
2018-12-08T07:53:06.126Z,4.6
2018-12-08T07:54:06.023Z,4.4
2018-12-08T07:55:05.927Z,4.4
2018-12-08T07:56:05.830Z,4.5
2018-12-08T07:57:08.454Z,4.4
2018-12-08T07:58:08.352Z,4.4
2018-12-08T07:59:08.924Z,4.1
2018-12-08T08:00:08.818Z,4.1
2018-12-08T08:01:08.734Z,4.1
2018-12-08T08:02:08.628Z,4.2
2018-12-08T08:03:08.522Z,4.2
2018-12-08T08:04:08.406Z,4.2
2018-12-08T08:05:09.525Z,4.2
2018-12-08T08:06:09.477Z,4.3
2018-12-08T08:07:09.368Z,4.3
2018-12-08T08:08:09.259Z,4.3
2018-12-08T08:09:09.573Z,4.3
2018-12-08T08:10:09.458Z,4.3
2018-12-08T08:11:09.449Z,4.3
2018-12-08T08:12:09.567Z,4.3
2018-12-08T08:13:09.470Z,4.3
2018-12-08T08:14:09.352Z,4.2
2018-12-08T08:15:09.244Z,4.2
2018-12-08T08:16:09.142Z,4.2
2018-12-08T08:17:09.028Z,4.1
2018-12-08T08:18:08.898Z,4.1
2018-12-08T08:19:09.211Z,4.1
2018-12-08T08:20:09.096Z,4.1
2018-12-08T08:21:08.990Z,4.1
2018-12-08T08:22:08.896Z,4.1
2018-12-08T08:23:08.789Z,4.1
2018-12-08T08:24:08.667Z,4.1
2018-12-08T08:25:08.543Z,4.1
2018-12-08T08:26:08.435Z,4.1
2018-12-08T08:27:08.323Z,4.1
2018-12-08T08:28:08.231Z,4.1
2018-12-08T08:29:08.595Z,4.1
2018-12-08T08:30:08.495Z,4.1
2018-12-08T08:31:08.397Z,4.1
2018-12-08T08:32:08.393Z,4.1
2018-12-08T08:33:08.298Z,4.1
2018-12-08T08:34:08.178Z,4.2
2018-12-08T08:35:08.062Z,4.2
2018-12-08T08:36:07.947Z,4.2
2018-12-08T08:37:09.964Z,4.2
2018-12-08T08:38:09.888Z,4.2
2018-12-08T08:39:10.221Z,4.2
2018-12-08T08:40:10.119Z,4.2
2018-12-08T08:49:08.284Z,5
2018-12-08T08:50:08.182Z,5
2018-12-08T08:51:08.080Z,4.9
2018-12-08T08:52:07.968Z,4.9
2018-12-08T08:53:07.879Z,4.9
2018-12-08T08:54:07.791Z,4.8
2018-12-08T08:55:07.676Z,4.8
2018-12-08T08:56:07.565Z,4.7
2018-12-08T08:57:07.458Z,4.7
2018-12-08T08:58:07.343Z,4.7
2018-12-08T08:59:07.696Z,4.8
2018-12-08T09:00:07.568Z,4.7
2018-12-08T09:01:07.476Z,4.8
2018-12-08T09:02:07.358Z,4.8
2018-12-08T09:03:07.250Z,4.8
2018-12-08T09:04:07.164Z,4.7
2018-12-08T09:05:07.040Z,4.7
2018-12-08T09:06:06.932Z,4.7
2018-12-08T09:07:06.831Z,4.7
2018-12-08T09:08:06.733Z,4.7
2018-12-08T09:09:07.092Z,4.6
2018-12-08T09:10:06.982Z,4.7
2018-12-08T09:11:06.876Z,4.7
2018-12-08T09:12:06.770Z,4.8
2018-12-08T09:13:06.678Z,4.8
2018-12-08T09:14:13.968Z,4.9
2018-12-08T09:15:13.864Z,5
2018-12-08T09:16:13.760Z,5.1
2018-12-08T09:17:13.653Z,5.2
2018-12-08T09:18:13.572Z,5.2
2018-12-08T09:19:13.897Z,5.2
2018-12-08T09:20:13.806Z,5.2
2018-12-08T09:21:13.690Z,5.2
2018-12-08T09:29:12.216Z,5.8
2018-12-08T09:30:12.133Z,5.7
2018-12-08T09:31:12.015Z,5.7
2018-12-08T09:32:11.921Z,5.7
2018-12-08T09:33:11.800Z,5.7
2018-12-08T09:34:11.669Z,5.6
2018-12-08T09:35:11.540Z,5.6
2018-12-08T09:36:11.431Z,5.5
2018-12-08T09:37:11.322Z,5.5
2018-12-08T09:38:11.397Z,5.6
2018-12-08T09:39:11.721Z,5.6
2018-12-08T09:40:11.610Z,5.6
2018-12-08T09:41:11.523Z,5.7
2018-12-08T09:42:11.411Z,5.8
2018-12-08T09:43:11.304Z,5.8
2018-12-08T09:44:11.179Z,5.9
2018-12-08T09:45:11.087Z,5.9
2018-12-08T09:46:10.987Z,5.8
2018-12-08T09:47:10.892Z,5.7
2018-12-08T09:48:10.777Z,5.7
2018-12-08T09:49:11.103Z,5.7
2018-12-08T09:50:10.991Z,5.7
2018-12-08T09:51:10.888Z,5.8
2018-12-08T09:52:10.773Z,5.9
2018-12-08T09:53:10.659Z,5.9
2018-12-08T09:54:10.563Z,5.9
2018-12-08T09:55:10.462Z,5.9
2018-12-08T09:56:10.391Z,5.9
2018-12-08T09:57:10.294Z,5.9
2018-12-08T09:58:10.173Z,5.9
2018-12-08T09:59:10.553Z,5.9
2018-12-08T10:00:10.436Z,5.9
2018-12-08T10:01:10.369Z,5.9
2018-12-08T10:02:10.289Z,5.9
2018-12-08T10:03:10.193Z,5.9
2018-12-08T10:04:10.075Z,6
2018-12-08T10:05:09.983Z,6
2018-12-08T10:06:09.879Z,6
2018-12-08T10:07:09.785Z,6
2018-12-08T10:08:09.679Z,6
2018-12-08T10:09:09.998Z,6
2018-12-08T10:10:10.008Z,6
2018-12-08T10:11:09.895Z,6
2018-12-08T10:12:09.797Z,6
2018-12-08T10:14:09.436Z,6.1
2018-12-08T10:16:09.018Z,6.3
2018-12-08T10:18:08.624Z,6.4
2018-12-08T10:19:08.942Z,6.4
2018-12-08T10:20:08.844Z,6.5
2018-12-08T10:21:08.735Z,6.5
2018-12-08T10:22:09.379Z,6.5
2018-12-08T10:23:09.265Z,6.5
2018-12-08T10:24:09.165Z,6.5
2018-12-08T10:25:09.072Z,6.4
2018-12-08T10:26:09.066Z,6.4
2018-12-08T10:27:08.976Z,6.4
2018-12-08T10:28:08.892Z,6.4
2018-12-08T10:29:09.230Z,6.3
2018-12-08T10:30:09.131Z,6.3
2018-12-08T10:31:09.042Z,6.3
2018-12-08T10:32:09.008Z,6.2
2018-12-08T10:33:08.906Z,6.4
2018-12-08T10:34:08.828Z,6.5
2018-12-08T10:35:09.054Z,6.5
2018-12-08T10:36:08.954Z,6.6
2018-12-08T10:37:08.862Z,6.6
2018-12-08T10:38:08.771Z,6.7
2018-12-08T10:39:09.142Z,6.7
2018-12-08T10:40:09.056Z,6.7
2018-12-08T10:41:09.189Z,6.7
2018-12-08T10:42:09.168Z,6.7
2018-12-08T10:43:11.805Z,6.6
2018-12-08T10:44:11.706Z,6.6
2018-12-08T10:45:11.604Z,6.6
2018-12-08T10:46:11.521Z,6.5
2018-12-08T10:47:11.431Z,6.4
2018-12-08T10:48:11.378Z,6.4
2018-12-08T10:49:13.599Z,6.4
2018-12-08T10:50:13.508Z,6.4
2018-12-08T10:51:13.409Z,6.4
2018-12-08T10:52:13.318Z,6.4
2018-12-08T10:53:13.216Z,6.4
2018-12-08T10:54:13.100Z,6.3
2018-12-08T10:55:12.985Z,6.4
2018-12-08T10:56:12.899Z,6.4
2018-12-08T10:57:12.801Z,6.5
2018-12-08T10:58:12.720Z,6.5
2018-12-08T10:59:13.050Z,6.5
2018-12-08T11:00:12.936Z,6.4
2018-12-08T11:01:12.822Z,6.4
2018-12-08T11:02:12.739Z,6.4
2018-12-08T11:03:12.648Z,6.5
2018-12-08T11:04:12.548Z,6.6
2018-12-08T11:05:12.448Z,6.7
2018-12-08T11:07:12.105Z,6.9
2018-12-08T11:09:12.297Z,7
2018-12-08T11:10:12.204Z,7.1
2018-12-08T11:11:12.118Z,7.1
2018-12-08T11:12:12.134Z,7.1
2018-12-08T11:13:12.076Z,7.1
2018-12-08T11:14:11.976Z,7.1
2018-12-08T11:15:11.898Z,7.1
2018-12-08T11:16:11.834Z,7.1
2018-12-08T11:17:11.717Z,7.1
2018-12-08T11:18:11.630Z,7
2018-12-08T11:19:12.041Z,7.1
2018-12-08T11:20:11.934Z,7
2018-12-08T11:21:11.834Z,6.9
2018-12-08T11:22:11.726Z,6.9
2018-12-08T11:23:11.650Z,7
2018-12-08T11:24:11.537Z,6.9
2018-12-08T11:25:11.420Z,6.9
2018-12-08T11:26:11.384Z,7
2018-12-08T11:27:11.315Z,7
2018-12-08T11:28:11.232Z,6.9
2018-12-08T11:29:11.563Z,6.9
2018-12-08T11:30:11.570Z,6.9
2018-12-08T11:31:11.469Z,6.8
2018-12-08T11:32:11.372Z,6.8
2018-12-08T11:33:11.283Z,6.7
2018-12-08T11:34:11.169Z,6.7
2018-12-08T11:35:11.072Z,6.7
2018-12-08T11:36:10.981Z,6.7
2018-12-08T11:37:10.904Z,6.7
2018-12-08T11:38:10.791Z,6.7
2018-12-08T11:39:11.165Z,6.7
2018-12-08T11:40:11.060Z,6.6
2018-12-08T11:41:10.962Z,6.5
2018-12-08T11:42:10.870Z,6.5
2018-12-08T11:43:10.785Z,6.6
2018-12-08T11:44:10.698Z,6.5
2018-12-08T11:45:10.856Z,6.5
2018-12-08T11:46:13.799Z,6.5
2018-12-08T11:47:13.724Z,6.5
2018-12-08T11:48:13.702Z,6.5
2018-12-08T11:49:14.089Z,6.5
2018-12-08T11:50:14.076Z,6.5
2018-12-08T11:51:13.990Z,6.6
2018-12-08T11:52:13.884Z,6.6
2018-12-08T11:53:13.778Z,6.6
2018-12-08T11:54:13.682Z,6.6
2018-12-08T11:55:13.604Z,6.7
2018-12-08T11:56:13.502Z,6.6
2018-12-08T11:57:13.390Z,6.7
2018-12-08T11:58:13.289Z,6.6
2018-12-08T11:59:13.600Z,6.5
2018-12-08T12:00:13.532Z,6.6
2018-12-08T12:01:13.450Z,6.5
2018-12-08T12:02:17.308Z,6.6
2018-12-08T12:03:17.203Z,6.6
2018-12-08T12:04:17.102Z,6.6
2018-12-08T12:05:17.012Z,6.5
2018-12-08T12:06:16.905Z,6.5
2018-12-08T12:07:16.814Z,6.5
2018-12-08T12:08:16.714Z,6.6
2018-12-08T12:09:17.044Z,6.5
2018-12-08T12:10:16.966Z,6.5
2018-12-08T12:11:16.879Z,6.5
2018-12-08T12:12:16.786Z,6.5
2018-12-08T12:13:16.670Z,6.6
2018-12-08T12:14:16.567Z,6.8
2018-12-08T12:17:15.986Z,7.2
2018-12-08T12:19:16.066Z,7.2
2018-12-08T12:20:15.972Z,7.2
2018-12-08T12:21:15.898Z,7.2
2018-12-08T12:22:15.804Z,7.2
2018-12-08T12:23:15.724Z,7.2
2018-12-08T12:24:15.616Z,7.2
2018-12-08T12:25:15.513Z,7.1
2018-12-08T12:26:15.530Z,7.1
2018-12-08T12:27:15.429Z,7.1
2018-12-08T12:28:15.335Z,7
2018-12-08T12:29:15.712Z,7
2018-12-08T12:30:15.612Z,7
2018-12-08T12:31:15.518Z,7
2018-12-08T12:32:15.406Z,7
2018-12-08T12:33:15.300Z,7
2018-12-08T12:34:15.427Z,6.9
2018-12-08T12:35:15.324Z,6.9
2018-12-08T12:36:15.239Z,6.7
2018-12-08T12:37:15.125Z,6.7
2018-12-08T12:38:15.264Z,6.7
2018-12-08T12:39:15.587Z,6.7
2018-12-08T12:40:15.708Z,6.7
2018-12-08T12:41:15.613Z,6.7
2018-12-08T12:42:15.517Z,6.7
2018-12-08T12:43:15.411Z,6.7
2018-12-08T12:45:15.031Z,6.9
2018-12-08T12:46:15.021Z,7
2018-12-08T12:49:15.214Z,7.1
2018-12-08T12:50:15.122Z,7.1
2018-12-08T12:51:15.023Z,7.1
2018-12-08T12:52:15.614Z,7.1
2018-12-08T12:53:15.514Z,7.1
2018-12-08T12:54:15.425Z,7.1
2018-12-08T12:55:15.334Z,7
2018-12-08T12:56:15.232Z,7
2018-12-08T12:57:15.261Z,7
2018-12-08T12:58:15.160Z,6.9
2018-12-08T12:59:15.571Z,7
2018-12-08T13:00:15.464Z,7
2018-12-08T13:01:15.370Z,6.9
2018-12-08T13:02:15.280Z,6.9
2018-12-08T13:03:15.175Z,6.9
2018-12-08T13:04:15.084Z,6.9
2018-12-08T13:05:14.990Z,6.9
2018-12-08T13:06:14.900Z,6.9
2018-12-08T13:07:14.816Z,6.9
2018-12-08T13:08:14.720Z,6.9
2018-12-08T13:09:15.030Z,6.8
2018-12-08T13:10:14.921Z,6.8
2018-12-08T13:11:14.796Z,6.8
2018-12-08T13:12:14.742Z,6.8
2018-12-08T13:13:14.636Z,6.8
2018-12-08T13:14:14.510Z,6.8
2018-12-08T13:15:14.400Z,6.9
2018-12-08T13:16:14.749Z,6.9
2018-12-08T13:17:14.656Z,6.9
2018-12-08T13:18:14.612Z,6.8
2018-12-08T13:19:15.191Z,6.8
2018-12-08T13:20:15.078Z,6.8
2018-12-08T13:21:14.980Z,6.8
2018-12-08T13:22:15.133Z,6.9
2018-12-08T13:23:15.044Z,6.9
2018-12-08T13:24:14.944Z,7
2018-12-08T13:26:17.890Z,7.1
2018-12-08T13:27:17.884Z,7.2
2018-12-08T13:29:18.343Z,7.2
2018-12-08T13:30:21.210Z,7.2
2018-12-08T13:31:21.131Z,7.2
2018-12-08T13:32:21.050Z,7.1
2018-12-08T13:33:26.941Z,7.2
2018-12-08T13:34:27.118Z,7.1
2018-12-08T13:35:27.175Z,7.2
2018-12-08T13:36:27.065Z,7.1
2018-12-08T13:37:27.060Z,7.1
2018-12-08T13:38:27.215Z,7.1
2018-12-08T13:39:31.807Z,7.1
2018-12-08T13:40:31.718Z,7.1
2018-12-08T13:41:31.629Z,7.1
2018-12-08T13:42:31.537Z,7.1
2018-12-08T13:43:31.438Z,7.1
2018-12-08T13:44:31.617Z,7.1
2018-12-08T13:45:31.527Z,7
2018-12-08T13:46:31.419Z,7.1
2018-12-08T13:47:34.619Z,7.1
2018-12-08T13:48:34.509Z,7
2018-12-08T13:49:40.637Z,6.9
2018-12-08T13:50:40.545Z,6.9
2018-12-08T13:51:40.438Z,6.9
2018-12-08T13:52:40.388Z,6.9
2018-12-08T13:53:40.344Z,6.9
2018-12-08T13:54:50.903Z,6.9
2018-12-08T13:55:50.875Z,6.9
2018-12-08T13:56:51.015Z,6.9
2018-12-08T13:57:50.973Z,6.9
2018-12-08T13:58:50.885Z,6.9
2018-12-08T13:59:54.339Z,6.8
2018-12-08T14:00:54.224Z,6.8
2018-12-08T14:01:54.343Z,6.8
2018-12-08T14:03:04.251Z,6.7
2018-12-08T14:04:04.160Z,6.7
2018-12-08T14:05:04.287Z,6.7
2018-12-08T14:06:04.205Z,6.7
2018-12-08T14:07:12.903Z,6.7
2018-12-08T14:08:21.701Z,6.7
2018-12-08T14:09:21.594Z,6.7
2018-12-08T14:10:30.833Z,6.7
2018-12-08T14:11:30.969Z,6.6
2018-12-08T14:12:35.471Z,6.6
2018-12-08T14:13:35.477Z,6.6
2018-12-08T14:14:56.234Z,6.8
2018-12-08T14:16:56.551Z,7
2018-12-08T14:19:04.936Z,7
2018-12-08T14:20:05.113Z,7.1
2018-12-08T14:21:08.635Z,7.1
2018-12-08T14:22:08.541Z,7.1
2018-12-08T14:23:17.421Z,7
2018-12-08T14:24:17.380Z,7
2018-12-08T14:25:17.546Z,7
2018-12-08T14:26:20.663Z,7
2018-12-08T14:27:20.559Z,7
2018-12-08T14:28:23.483Z,6.9
2018-12-08T14:29:23.413Z,6.9
2018-12-08T14:30:23.553Z,6.9
2018-12-08T14:31:28.699Z,6.8
2018-12-08T14:32:29.259Z,6.8
2018-12-08T14:33:29.178Z,6.8
2018-12-08T14:34:34.029Z,6.8
2018-12-08T14:35:34.175Z,6.7
2018-12-08T14:36:34.073Z,6.7
2018-12-08T14:37:37.945Z,6.6
2018-12-08T14:38:37.896Z,6.6
2018-12-08T14:39:38.501Z,6.7
2018-12-08T14:40:38.607Z,6.6
2018-12-08T14:41:47.887Z,6.6
2018-12-08T14:42:47.787Z,6.6
2018-12-08T14:43:50.973Z,6.6
2018-12-08T14:44:50.893Z,6.6
2018-12-08T14:45:55.493Z,6.4
2018-12-08T14:46:55.611Z,6.5
2018-12-08T14:47:55.505Z,6.5
2018-12-08T14:49:04.138Z,6.4
2018-12-08T14:50:04.266Z,6.5
2018-12-08T14:51:04.170Z,6.4
2018-12-08T14:52:07.692Z,6.3
2018-12-08T14:53:16.341Z,6.3
2018-12-08T14:54:19.290Z,6.4
2018-12-08T14:55:19.182Z,6.3
2018-12-08T14:56:22.052Z,6.4
2018-12-08T14:58:26.594Z,6.6
2018-12-08T15:00:31.038Z,6.7
2018-12-08T15:02:34.462Z,6.8
2018-12-08T15:03:34.375Z,6.8
2018-12-08T15:04:34.320Z,6.7
2018-12-08T15:05:34.202Z,6.6
2018-12-08T15:06:38.774Z,6.6
2018-12-08T15:07:47.576Z,6.6
2018-12-08T15:08:47.501Z,6.5
2018-12-08T15:09:50.180Z,6.4
2018-12-08T15:10:59.214Z,6.4
2018-12-08T15:11:59.273Z,6.3
2018-12-08T15:13:00.327Z,6.3
2018-12-08T15:14:09.091Z,6.3
2018-12-08T15:15:11.772Z,6.3
2018-12-08T15:16:11.678Z,6.3
2018-12-08T15:17:11.833Z,6.3
2018-12-08T15:18:11.730Z,6.3
2018-12-08T15:19:12.340Z,6.1
2018-12-08T15:20:15.035Z,6.2
2018-12-08T15:21:15.959Z,6.2
2018-12-08T15:22:15.868Z,6.2
2018-12-08T15:23:16.190Z,6.2
2018-12-08T15:24:16.105Z,6.2
2018-12-08T15:25:16.012Z,6.2
2018-12-08T15:26:15.898Z,6.2
2018-12-08T15:27:17.844Z,6.2
2018-12-08T15:28:17.744Z,6.2
2018-12-08T15:29:17.665Z,6.2
2018-12-08T15:30:17.582Z,6.2
2018-12-08T15:31:17.471Z,6.1
2018-12-08T15:32:17.366Z,6.2
2018-12-08T15:33:17.724Z,6.1
2018-12-08T15:34:17.904Z,6.1
2018-12-08T15:35:17.837Z,6
2018-12-08T15:36:17.746Z,6
2018-12-08T15:37:17.725Z,6.1
2018-12-08T15:38:18.302Z,6.1
2018-12-08T15:39:18.336Z,6.2
2018-12-08T15:40:18.539Z,6.2
2018-12-08T15:41:20.068Z,6.2
2018-12-08T15:42:19.957Z,6.1
2018-12-08T15:43:21.020Z,6.1
2018-12-08T15:44:22.541Z,6.1
2018-12-08T15:45:22.635Z,6.1
2018-12-08T15:47:22.287Z,6.2
2018-12-08T15:48:22.209Z,6.4
2018-12-08T15:49:22.101Z,6.4
2018-12-08T15:53:22.010Z,6.7
2018-12-08T15:54:21.930Z,6.7
2018-12-08T15:55:21.839Z,6.6
2018-12-08T15:56:21.761Z,6.6
2018-12-08T15:57:21.660Z,6.6
2018-12-08T15:58:21.774Z,6.6
2018-12-08T15:59:21.697Z,6.5
2018-12-08T16:00:21.609Z,6.5
2018-12-08T16:01:21.525Z,6.5
2018-12-08T16:02:24.553Z,6.5
2018-12-08T16:03:24.983Z,6.5
2018-12-08T16:04:24.895Z,6.4
2018-12-08T16:05:24.805Z,6.4
2018-12-08T16:06:24.815Z,6.4
2018-12-08T16:07:24.717Z,6.4
2018-12-08T16:08:24.639Z,6.4
2018-12-08T16:09:24.559Z,6.3
2018-12-08T16:10:25.177Z,6.3
2018-12-08T16:11:25.061Z,6.3
2018-12-08T16:12:24.983Z,6.2
2018-12-08T16:13:25.545Z,6.2
2018-12-08T16:14:25.465Z,6.2
2018-12-08T16:15:25.629Z,6.2
2018-12-08T16:16:25.538Z,6.1
2018-12-08T16:17:25.537Z,6.1
2018-12-08T16:18:25.447Z,6.1